Terminal Aerodrome Forecast (TAF)

TAF

Data at: 2130 UTC 20 Oct 2019

TAF for:NVSC (Sola/Vanua Lava Arpt, --, NV) issued at 1600 UTC 20 Oct 2019
Text:TAF NVSC 201600Z 2018/2118 10010KT 9999 SCT025
Forecast period:1800 UTC 20 October 2019 to 1800 UTC 21 October 2019
Forecast type:FROM: standard forecast or significant change
Winds:from the E (100 degrees) at 12 MPH (10 knots; 5.1 m/s)
Visibility:6 or more sm (10+ km)
Ceiling:at least 12,000 feet AGL
Clouds: scattered clouds at 2500 feet AGL
Text:PROB30
Forecast period:1800 UTC 20 October 2019 to 0000 UTC 21 October 2019
Forecast type:TEMPORARY: The following changes expected for less than half the time period
Visibility: 6 sm ( 9 km)
Ceiling:1800 feet AGL
Clouds: broken clouds at 1800 feet AGL
Weather:-SHRA (light rain showers)

TAF

Data at: 2130 UTC 20 Oct 2019

TAF for:NVSG (Longana Arpt, --, NV) issued at 1600 UTC 20 Oct 2019
Text:TAF NVSG 201600Z 2018/2118 12010KT 9999 SCT025
Forecast period:1800 UTC 20 October 2019 to 1800 UTC 21 October 2019
Forecast type:FROM: standard forecast or significant change
Winds:from the ESE (120 degrees) at 12 MPH (10 knots; 5.1 m/s)
Visibility:6 or more sm (10+ km)
Ceiling:at least 12,000 feet AGL
Clouds: scattered clouds at 2500 feet AGL
Text:PROB30
Forecast period:1800 UTC 20 October 2019 to 0000 UTC 21 October 2019
Forecast type:TEMPORARY: The following changes expected for less than half the time period
Visibility: 6 sm ( 9 km)
Ceiling:1800 feet AGL
Clouds: broken clouds at 1800 feet AGL
Weather:-SHRA (light rain showers)

TAF

Data at: 2130 UTC 20 Oct 2019

TAF for:NVSS (Santo/Pekoa Intl, --, NV) issued at 1600 UTC 20 Oct 2019
Text:TAF NVSS 201600Z 2018/2118 09010KT 9999 SCT020
Forecast period:1800 UTC 20 October 2019 to 1800 UTC 21 October 2019
Forecast type:FROM: standard forecast or significant change
Winds:from the E (90 degrees) at 12 MPH (10 knots; 5.1 m/s)
Visibility:6 or more sm (10+ km)
Ceiling:at least 12,000 feet AGL
Clouds: scattered clouds at 2000 feet AGL
Text:PROB30
Forecast period:1800 UTC 20 October 2019 to 0000 UTC 21 October 2019
Forecast type:TEMPORARY: The following changes expected for less than half the time period
Visibility: 6 sm ( 9 km)
Ceiling:1800 feet AGL
Clouds: broken clouds at 1800 feet AGL
Weather:-SHRA (light rain showers)

TAF

Data at: 2130 UTC 20 Oct 2019

TAF for:NVSL (Malekula/Lamap, --, NV) issued at 1000 UTC 20 Oct 2019
Text:TAF NVSL 201000Z 2012/2112 10010KT 9999 SCT020
Forecast period:1200 UTC 20 October 2019 to 1200 UTC 21 October 2019
Forecast type:FROM: standard forecast or significant change
Winds:from the E (100 degrees) at 12 MPH (10 knots; 5.1 m/s)
Visibility:6 or more sm (10+ km)
Ceiling:at least 12,000 feet AGL
Clouds: scattered clouds at 2000 feet AGL
Text:PROB40
Forecast period:1200 to 1800 UTC 20 October 2019
Forecast type:TEMPORARY: The following changes expected for less than half the time period
Visibility: 6 sm ( 9 km)
Ceiling:1800 feet AGL
Clouds: broken clouds at 1800 feet AGL
Weather:-SHRA (light rain showers)

TAF

Data at: 2130 UTC 20 Oct 2019

TAF for:NVSP (Norsup Arpt, --, NV) issued at 1600 UTC 20 Oct 2019
Text:TAF NVSP 201600Z 2018/2118 10008KT 9999 SCT020
Forecast period:1800 UTC 20 October 2019 to 1800 UTC 21 October 2019
Forecast type:FROM: standard forecast or significant change
Winds:from the E (100 degrees) at 9 MPH (8 knots; 4.1 m/s)
Visibility:6 or more sm (10+ km)
Ceiling:at least 12,000 feet AGL
Clouds: scattered clouds at 2000 feet AGL
Text:PROB40
Forecast period:1800 UTC 20 October 2019 to 0000 UTC 21 October 2019
Forecast type:TEMPORARY: The following changes expected for less than half the time period
Visibility: 6 sm ( 9 km)
Ceiling:1800 feet AGL
Clouds: broken clouds at 1800 feet AGL
Weather:-SHRA (light rain showers)

TAF

Data at: 2130 UTC 20 Oct 2019

TAF for:NVVV (Efate/Bauerfield Int, --, NV) issued at 1600 UTC 20 Oct 2019
Text:TAF NVVV 201600Z 2018/2118 10008KT 9999 SCT020 BKN030
Forecast period:1800 UTC 20 October 2019 to 1800 UTC 21 October 2019
Forecast type:FROM: standard forecast or significant change
Winds:from the E (100 degrees) at 9 MPH (8 knots; 4.1 m/s)
Visibility:6 or more sm (10+ km)
Ceiling:3000 feet AGL
Clouds: scattered clouds at 2000 feet AGL, broken clouds at 3000 feet AGL
Text:INTER 2018/2024 8000 SHRA FEW010 BKN016 OVC040
Forecast period:1800 UTC 20 October 2019 to 0000 UTC 21 October 2019
Forecast type:TEMPORARY: The following changes expected for less than half the time period
Visibility: 5 sm ( 8 km)
Ceiling:1600 feet AGL
Clouds: few clouds at 1000 feet AGL, broken clouds at 1600 feet AGL, overcast cloud deck at 4000 feet AGL
Weather:SHRA (rain showers)

TAF

Data at: 2130 UTC 20 Oct 2019

TAF for:NVVW (Tanna Arpt, --, NV) issued at 1600 UTC 20 Oct 2019
Text:TAF NVVW 201600Z 2018/2118 09010KT 9999 SCT020 BKN030
Forecast period:1800 UTC 20 October 2019 to 1800 UTC 21 October 2019
Forecast type:FROM: standard forecast or significant change
Winds:from the E (90 degrees) at 12 MPH (10 knots; 5.1 m/s)
Visibility:6 or more sm (10+ km)
Ceiling:3000 feet AGL
Clouds: scattered clouds at 2000 feet AGL, broken clouds at 3000 feet AGL
Text:INTER 2018/2024 8000 SHRA FEW010 BKN016 OVC040
Forecast period:1800 UTC 20 October 2019 to 0000 UTC 21 October 2019
Forecast type:TEMPORARY: The following changes expected for less than half the time period
Visibility: 5 sm ( 8 km)
Ceiling:1600 feet AGL
Clouds: few clouds at 1000 feet AGL, broken clouds at 1600 feet AGL, overcast cloud deck at 4000 feet AGL
Weather:SHRA (rain showers)

TAF

Data at: 2130 UTC 20 Oct 2019

TAF for:NVVA (Aneityum/Mystery Isl, --, NV) issued at 1600 UTC 20 Oct 2019
Text:TAF NVVA 201600Z 2018/2118 09010KT 9999 SCT020 BKN030
Forecast period:1800 UTC 20 October 2019 to 1800 UTC 21 October 2019
Forecast type:FROM: standard forecast or significant change
Winds:from the E (90 degrees) at 12 MPH (10 knots; 5.1 m/s)
Visibility:6 or more sm (10+ km)
Ceiling:3000 feet AGL
Clouds: scattered clouds at 2000 feet AGL, broken clouds at 3000 feet AGL
Text:INTER 2018/2024 8000 SHRA FEW010 BKN016 OVC040
Forecast period:1800 UTC 20 October 2019 to 0000 UTC 21 October 2019
Forecast type:TEMPORARY: The following changes expected for less than half the time period
Visibility: 5 sm ( 8 km)
Ceiling:1600 feet AGL
Clouds: few clouds at 1000 feet AGL, broken clouds at 1600 feet AGL, overcast cloud deck at 4000 feet AGL
Weather:SHRA (rain showers)

TAF

Data at: 2130 UTC 20 Oct 2019

TAF NVVV 201600Z 2018/2118 10008KT 9999 SCT020 BKN030
  INTER 2018/2024 8000 SHRA FEW010 BKN016 OVC040
TAF NVSC 201600Z 2018/2118 10010KT 9999 SCT025
  PROB30
  INTER 2018/2024 9000 -SHRA BKN018
TAF NVSG 201600Z 2018/2118 12010KT 9999 SCT025
  PROB30
  INTER 2018/2024 9000 -SHRA BKN018
TAF NVSS 201600Z 2018/2118 09010KT 9999 SCT020
  PROB30
  INTER 2018/2024 9000 -SHRA BKN018
TAF NVSL 201000Z 2012/2112 10010KT 9999 SCT020
  PROB40
  INTER 2012/2018 9000 -SHRA BKN018
TAF NVSP 201600Z 2018/2118 10008KT 9999 SCT020
  PROB40
  INTER 2018/2024 9000 -SHRA BKN018
TAF NVVW 201600Z 2018/2118 09010KT 9999 SCT020 BKN030
  INTER 2018/2024 8000 SHRA FEW010 BKN016 OVC040
TAF NVVA 201600Z 2018/2118 09010KT 9999 SCT020 BKN030
  INTER 2018/2024 8000 SHRA FEW010 BKN016 OVC040